createdAt,value
2022-09-16T00:00:52.957Z,62.50
2022-09-16T00:03:20.206Z,62.40
2022-09-16T00:06:17.254Z,62.40
2022-09-16T00:09:01.445Z,62.30
2022-09-16T00:11:42.286Z,62.40
2022-09-16T00:14:14.679Z,62.30
2022-09-16T00:16:48.269Z,62.50
2022-09-16T00:19:19.502Z,62.40
2022-09-16T00:22:13.911Z,62.50
2022-09-16T00:24:44.461Z,62.50
2022-09-16T00:27:19.093Z,62.50
2022-09-16T00:29:47.328Z,62.50
2022-09-16T00:32:20.961Z,62.60
2022-09-16T00:34:51.586Z,62.60
2022-09-16T00:37:18.907Z,62.60
2022-09-16T00:39:49.369Z,62.60
2022-09-16T00:42:19.837Z,62.60
2022-09-16T00:44:49.889Z,62.60
2022-09-16T00:47:22.674Z,62.60
2022-09-16T00:49:52.820Z,62.60
2022-09-16T00:52:20.008Z,62.60
2022-09-16T00:54:52.794Z,62.60
2022-09-16T00:57:20.035Z,62.70
2022-09-16T00:59:49.642Z,62.70
2022-09-16T01:02:25.431Z,62.70
2022-09-16T01:05:03.025Z,62.70
2022-09-16T01:07:49.808Z,62.80
2022-09-16T01:10:19.733Z,62.90
2022-09-16T01:13:03.872Z,62.80
2022-09-16T01:15:40.308Z,62.80
2022-09-16T01:18:27.874Z,62.80
2022-09-16T01:21:07.045Z,62.80
2022-09-16T01:24:13.842Z,62.80
2022-09-16T01:26:57.822Z,62.90
2022-09-16T01:29:55.132Z,62.90
2022-09-16T01:32:48.761Z,62.90
2022-09-16T01:35:54.254Z,63.00
2022-09-16T01:38:26.789Z,63.00
2022-09-16T01:41:22.430Z,63.10
2022-09-16T01:44:22.272Z,63.10
2022-09-16T01:46:59.429Z,63.20
2022-09-16T01:49:46.718Z,63.30
2022-09-16T01:52:40.644Z,63.30
2022-09-16T01:55:23.420Z,63.40
2022-09-16T01:58:37.008Z,63.40
2022-09-16T02:01:30.145Z,63.60
2022-09-16T02:04:12.958Z,63.70
2022-09-16T02:06:40.211Z,63.80
2022-09-16T02:09:16.016Z,63.90
2022-09-16T02:11:55.476Z,64.10
2022-09-16T02:14:35.942Z,64.10
2022-09-16T02:17:07.831Z,64.30
2022-09-16T02:19:50.195Z,64.40
2022-09-16T02:22:23.985Z,64.60
2022-09-16T02:24:56.080Z,64.70
2022-09-16T02:27:28.953Z,64.80
2022-09-16T02:30:00.934Z,64.80
2022-09-16T02:32:31.230Z,65.00
2022-09-16T02:34:58.636Z,65.10
2022-09-16T02:37:54.726Z,65.80
2022-09-16T02:40:33.396Z,65.30
2022-09-16T02:43:05.213Z,65.50
2022-09-16T02:45:50.820Z,65.60
2022-09-16T02:48:32.304Z,65.70
2022-09-16T02:51:02.329Z,65.90
2022-09-16T02:54:16.946Z,66.00
2022-09-16T02:56:48.949Z,66.20
2022-09-16T02:59:18.424Z,66.20
2022-09-16T03:01:46.541Z,66.40
2022-09-16T03:04:15.581Z,66.40
2022-09-16T03:06:42.640Z,66.50
2022-09-16T03:09:15.494Z,66.60
2022-09-16T03:12:23.721Z,66.70
2022-09-16T03:15:04.748Z,66.90
2022-09-16T03:17:52.865Z,67.50
2022-09-16T03:20:51.132Z,67.10
2022-09-16T03:23:47.255Z,67.20
2022-09-16T03:26:44.214Z,67.20
2022-09-16T03:29:45.838Z,67.30
2022-09-16T03:32:29.103Z,67.50
2022-09-16T03:35:06.662Z,67.50
2022-09-16T03:37:36.518Z,67.60
2022-09-16T03:40:30.118Z,67.70
2022-09-16T03:42:57.950Z,67.80
2022-09-16T03:45:25.260Z,67.90
2022-09-16T03:47:57.546Z,68.60
2022-09-16T03:50:29.844Z,68.50
2022-09-16T03:52:57.271Z,68.20
2022-09-16T03:55:25.819Z,68.40
2022-09-16T03:57:56.549Z,68.40
2022-09-16T04:00:32.482Z,68.50
2022-09-16T04:03:02.710Z,68.60
2022-09-16T04:05:32.371Z,68.70
2022-09-16T04:07:59.647Z,68.70
2022-09-16T04:10:31.313Z,68.80
2022-09-16T04:12:59.156Z,68.90
2022-09-16T04:15:29.370Z,68.90
2022-09-16T04:17:56.673Z,69.10
2022-09-16T04:20:28.602Z,69.10
2022-09-16T04:22:55.827Z,69.10
2022-09-16T04:25:32.078Z,69.20
2022-09-16T04:28:02.213Z,69.30
2022-09-16T04:30:29.274Z,69.40
2022-09-16T04:33:03.904Z,69.40
2022-09-16T04:35:32.430Z,69.40
2022-09-16T04:37:59.605Z,69.60
2022-09-16T04:40:32.737Z,69.70
2022-09-16T04:42:59.859Z,69.70
2022-09-16T04:45:26.807Z,69.80
2022-09-16T04:48:00.570Z,69.80
2022-09-16T04:50:28.071Z,69.80
2022-09-16T04:53:01.057Z,69.90
2022-09-16T04:55:31.624Z,69.80
2022-09-16T04:58:01.767Z,69.90
2022-09-16T05:00:33.565Z,70.00
2022-09-16T05:03:05.890Z,70.10
2022-09-16T05:05:36.702Z,70.20
2022-09-16T05:08:04.439Z,70.30
2022-09-16T05:10:34.684Z,70.40
2022-09-16T05:13:04.703Z,70.40
2022-09-16T05:15:32.057Z,70.50
2022-09-16T05:17:59.056Z,70.60
2022-09-16T05:20:32.195Z,70.60
2022-09-16T05:23:02.069Z,70.70
2022-09-16T05:25:35.937Z,70.90
2022-09-16T05:28:02.956Z,70.90
2022-09-16T05:30:29.957Z,71.00
2022-09-16T05:32:59.923Z,70.90
2022-09-16T05:35:31.981Z,71.10
2022-09-16T05:38:12.422Z,71.20
2022-09-16T05:40:39.930Z,71.40
2022-09-16T05:43:09.533Z,71.50
2022-09-16T05:45:36.477Z,71.60
2022-09-16T05:48:03.395Z,71.70
2022-09-16T05:50:31.330Z,71.80
2022-09-16T05:52:59.528Z,71.90
2022-09-16T05:55:41.354Z,72.00
2022-09-16T05:58:25.240Z,72.00
2022-09-16T06:00:52.517Z,72.10
2022-09-16T06:03:30.385Z,72.10
2022-09-16T06:06:04.879Z,72.10
2022-09-16T06:08:34.983Z,72.10
2022-09-16T06:11:06.407Z,72.10
2022-09-16T06:13:37.501Z,72.10
2022-09-16T06:16:05.421Z,72.10
2022-09-16T06:18:35.022Z,72.20
2022-09-16T06:21:07.207Z,72.30
2022-09-16T06:23:36.200Z,72.30
2022-09-16T06:26:05.632Z,72.30
2022-09-16T06:28:32.911Z,72.40
2022-09-16T06:31:14.988Z,72.50
2022-09-16T06:33:42.815Z,72.60
2022-09-16T06:36:20.529Z,72.50
2022-09-16T06:38:49.527Z,72.60
2022-09-16T06:41:17.231Z,72.70
2022-09-16T06:43:45.945Z,72.60
2022-09-16T06:46:19.699Z,72.80
2022-09-16T06:48:48.424Z,72.80
2022-09-16T06:51:39.461Z,72.80
2022-09-16T06:54:10.188Z,72.90
2022-09-16T06:56:44.213Z,72.90
2022-09-16T06:59:14.657Z,72.80
2022-09-16T07:01:42.039Z,72.80
2022-09-16T07:04:16.420Z,72.80
2022-09-16T07:07:08.750Z,72.70
2022-09-16T07:09:39.412Z,72.70
2022-09-16T07:12:09.479Z,72.60
2022-09-16T07:14:36.566Z,72.40
2022-09-16T07:17:03.725Z,72.20
2022-09-16T07:19:35.041Z,72.10
2022-09-16T07:22:11.078Z,72.00
2022-09-16T07:24:38.202Z,72.50
2022-09-16T07:27:05.621Z,71.80
2022-09-16T07:29:36.653Z,71.70
2022-09-16T07:35:57.957Z,71.40
2022-09-16T07:38:29.837Z,71.10
2022-09-16T07:40:58.854Z,71.00
2022-09-16T07:43:30.825Z,71.00
2022-09-16T07:46:04.355Z,70.90
2022-09-16T07:48:34.860Z,70.80
2022-09-16T07:51:34.707Z,70.60
2022-09-16T07:54:04.417Z,70.60
2022-09-16T07:56:56.447Z,70.50
2022-09-16T07:59:23.712Z,70.30
2022-09-16T08:01:50.905Z,70.30
2022-09-16T08:04:19.591Z,70.30
2022-09-16T08:06:46.592Z,70.30
2022-09-16T08:09:37.881Z,70.30
2022-09-16T08:12:02.898Z,70.10
2022-09-16T08:14:30.168Z,70.10
2022-09-16T08:16:57.860Z,70.10
2022-09-16T08:19:25.288Z,70.10
2022-09-16T08:21:52.615Z,69.90
2022-09-16T08:24:21.986Z,69.70
2022-09-16T08:26:49.262Z,69.60
2022-09-16T08:29:16.898Z,69.40
2022-09-16T08:31:44.480Z,69.20
2022-09-16T08:34:11.543Z,68.90
2022-09-16T08:36:39.023Z,68.80
2022-09-16T08:39:09.654Z,68.50
2022-09-16T08:42:00.321Z,68.30
2022-09-16T08:44:52.166Z,67.80
2022-09-16T08:47:39.479Z,67.50
2022-09-16T08:50:08.951Z,67.30
2022-09-16T08:52:37.261Z,67.20
2022-09-16T08:55:21.947Z,67.10
2022-09-16T08:58:05.178Z,67.00
2022-09-16T09:00:32.201Z,66.80
2022-09-16T09:03:05.980Z,66.80
2022-09-16T09:05:33.197Z,66.70
2022-09-16T09:08:19.081Z,66.60
2022-09-16T09:10:50.710Z,66.40
2022-09-16T09:13:59.678Z,66.20
2022-09-16T09:16:38.669Z,65.90
2022-09-16T09:19:48.896Z,65.50
2022-09-16T09:22:28.799Z,65.20
2022-09-16T09:25:21.967Z,65.50
2022-09-16T09:28:17.679Z,64.70
2022-09-16T09:30:49.376Z,64.50
2022-09-16T09:33:44.910Z,64.40
2022-09-16T09:36:23.743Z,64.30
2022-09-16T09:39:27.490Z,64.30
2022-09-16T09:42:21.398Z,64.40
2022-09-16T09:44:59.790Z,64.60
2022-09-16T09:47:31.408Z,64.70
2022-09-16T09:49:59.405Z,64.60
2022-09-16T09:52:38.803Z,64.60
2022-09-16T09:55:20.027Z,64.50
2022-09-16T09:58:02.012Z,64.60
2022-09-16T10:00:29.419Z,64.30
2022-09-16T10:03:04.236Z,64.20
2022-09-16T10:05:31.538Z,64.00
2022-09-16T10:08:22.741Z,64.50
2022-09-16T10:11:03.301Z,63.70
2022-09-16T10:13:31.389Z,63.60
2022-09-16T10:16:10.990Z,63.60
2022-09-16T10:18:38.325Z,63.50
2022-09-16T10:21:07.365Z,63.30
2022-09-16T10:23:34.931Z,63.10
2022-09-16T10:26:08.246Z,63.20
2022-09-16T10:28:35.379Z,63.00
2022-09-16T10:31:07.731Z,62.90
2022-09-16T10:33:36.718Z,62.60
2022-09-16T10:36:08.551Z,62.40
2022-09-16T10:38:47.610Z,62.20
2022-09-16T10:41:27.583Z,62.20
2022-09-16T10:44:06.792Z,62.20
2022-09-16T10:46:34.059Z,62.20
2022-09-16T10:49:08.996Z,62.30
2022-09-16T10:51:39.223Z,62.20
2022-09-16T10:54:08.295Z,62.10
2022-09-16T10:56:49.395Z,62.00
2022-09-16T10:59:18.508Z,61.80
2022-09-16T11:01:49.165Z,61.60
2022-09-16T11:04:31.724Z,61.40
2022-09-16T11:07:16.858Z,61.10
2022-09-16T11:09:55.573Z,60.90
2022-09-16T11:13:04.870Z,60.70
2022-09-16T11:15:50.627Z,60.30
2022-09-16T11:18:48.072Z,60.20
2022-09-16T11:21:37.371Z,60.10
2022-09-16T11:24:28.258Z,59.80
2022-09-16T11:27:14.097Z,59.80
2022-09-16T11:29:47.821Z,59.60
2022-09-16T11:32:20.422Z,59.30
2022-09-16T11:34:56.812Z,59.20
2022-09-16T11:37:50.455Z,59.00
2022-09-16T11:40:26.582Z,58.70
2022-09-16T11:43:28.447Z,58.70
2022-09-16T11:46:23.836Z,58.40
2022-09-16T11:49:32.440Z,58.20
2022-09-16T11:52:23.264Z,58.10
2022-09-16T11:55:11.609Z,58.00
2022-09-16T11:57:43.851Z,57.80
2022-09-16T12:00:17.008Z,57.80
2022-09-16T12:03:01.012Z,57.70
2022-09-16T12:05:28.059Z,57.40
2022-09-16T12:08:12.951Z,57.40
2022-09-16T12:10:51.108Z,57.20
2022-09-16T12:13:30.017Z,56.90
2022-09-16T12:16:02.490Z,56.60
2022-09-16T12:18:55.464Z,56.40
2022-09-16T12:21:36.250Z,56.00
2022-09-16T12:24:16.613Z,55.90
2022-09-16T12:27:09.215Z,55.80
2022-09-16T12:29:47.988Z,55.70
2022-09-16T12:32:18.941Z,55.70
2022-09-16T12:35:10.950Z,55.60
2022-09-16T12:37:50.069Z,55.50
2022-09-16T12:40:45.170Z,55.60
2022-09-16T12:43:34.299Z,55.30
2022-09-16T12:46:12.208Z,55.00
2022-09-16T12:49:03.554Z,54.80
2022-09-16T12:52:16.468Z,54.50
2022-09-16T12:55:08.255Z,54.10
2022-09-16T12:57:56.975Z,54.20
2022-09-16T13:00:28.690Z,54.20
2022-09-16T13:03:00.809Z,54.20
2022-09-16T13:05:34.333Z,54.10
2022-09-16T13:08:07.893Z,53.90
2022-09-16T13:10:56.244Z,53.70
2022-09-16T13:13:37.855Z,53.40
2022-09-16T13:16:06.551Z,53.10
2022-09-16T13:18:43.998Z,52.80
2022-09-16T13:21:41.668Z,52.60
2022-09-16T13:24:31.842Z,52.50
2022-09-16T13:26:59.286Z,52.50
2022-09-16T13:29:38.798Z,52.70
2022-09-16T13:32:33.599Z,52.40
2022-09-16T13:35:25.012Z,52.20
2022-09-16T13:37:58.027Z,52.00
2022-09-16T13:40:33.084Z,51.90
2022-09-16T13:43:11.387Z,51.70
2022-09-16T13:45:42.119Z,51.40
2022-09-16T13:48:22.736Z,51.40
2022-09-16T13:50:57.467Z,51.30
2022-09-16T13:53:33.298Z,51.20
2022-09-16T13:56:08.470Z,51.10
2022-09-16T13:58:43.664Z,51.20
2022-09-16T14:01:28.060Z,51.20
2022-09-16T14:04:47.981Z,51.20
2022-09-16T14:07:15.113Z,51.10
2022-09-16T14:09:59.892Z,51.30
2022-09-16T14:13:17.121Z,51.30
2022-09-16T14:15:49.529Z,51.10
2022-09-16T14:18:19.407Z,51.40
2022-09-16T14:21:02.940Z,51.30
2022-09-16T14:23:41.619Z,51.10
2022-09-16T14:26:22.311Z,51.00
2022-09-16T14:28:52.570Z,50.80
2022-09-16T14:31:23.286Z,50.70
2022-09-16T14:33:56.680Z,50.70
2022-09-16T14:36:28.294Z,50.50
2022-09-16T14:39:12.994Z,50.60
2022-09-16T14:41:50.165Z,50.60
2022-09-16T14:44:25.502Z,51.00
2022-09-16T14:47:39.698Z,50.40
2022-09-16T14:50:26.246Z,50.20
2022-09-16T14:52:55.732Z,50.20
2022-09-16T14:55:30.289Z,50.20
2022-09-16T14:58:01.560Z,50.00
2022-09-16T15:00:41.256Z,49.80
2022-09-16T15:03:25.867Z,49.80
2022-09-16T15:06:16.614Z,49.60
2022-09-16T15:08:53.477Z,49.70
2022-09-16T15:11:47.996Z,49.60
2022-09-16T15:14:18.631Z,49.60
2022-09-16T15:16:55.538Z,49.70
2022-09-16T15:19:29.648Z,49.60
2022-09-16T15:21:59.554Z,49.70
2022-09-16T15:24:31.246Z,49.60
2022-09-16T15:26:59.410Z,49.50
2022-09-16T15:30:17.838Z,49.50
2022-09-16T15:33:03.724Z,49.50
2022-09-16T15:38:25.993Z,49.50
2022-09-16T15:41:29.195Z,49.50
2022-09-16T15:43:58.615Z,49.50
2022-09-16T15:46:36.624Z,49.50
2022-09-16T15:49:23.767Z,49.30
2022-09-16T15:56:10.591Z,49.00
2022-09-16T15:58:47.791Z,49.20
2022-09-16T16:02:07.887Z,49.20
2022-09-16T16:04:35.540Z,49.00
2022-09-16T16:07:10.157Z,49.10
2022-09-16T16:09:45.139Z,49.00
2022-09-16T16:12:20.769Z,49.00
2022-09-16T16:14:47.999Z,48.90
2022-09-16T16:17:24.702Z,48.90
2022-09-16T16:19:52.004Z,48.90
2022-09-16T16:22:42.538Z,48.80
2022-09-16T16:25:14.369Z,48.80
2022-09-16T16:27:45.013Z,48.80
2022-09-16T16:30:12.424Z,48.80
2022-09-16T16:32:40.283Z,48.70
2022-09-16T16:35:10.171Z,48.70
2022-09-16T16:37:46.442Z,48.50
2022-09-16T16:40:15.303Z,48.50
2022-09-16T16:42:44.054Z,48.50
2022-09-16T16:45:20.134Z,48.40
2022-09-16T16:47:47.288Z,48.40
2022-09-16T16:50:16.829Z,48.40
2022-09-16T16:52:44.084Z,48.40
2022-09-16T16:55:16.755Z,48.40
2022-09-16T16:57:47.100Z,48.30
2022-09-16T17:00:15.026Z,48.30
2022-09-16T17:02:42.984Z,48.30
2022-09-16T17:05:14.539Z,48.40
2022-09-16T17:07:44.632Z,48.40
2022-09-16T17:10:13.730Z,48.40
2022-09-16T17:12:46.544Z,48.50
2022-09-16T17:15:15.719Z,48.70
2022-09-16T17:17:46.934Z,48.70
2022-09-16T17:20:14.269Z,48.60
2022-09-16T17:22:43.593Z,48.60
2022-09-16T17:25:11.164Z,48.60
2022-09-16T17:27:40.834Z,48.60
2022-09-16T17:30:10.646Z,48.60
2022-09-16T17:32:37.599Z,48.60
2022-09-16T17:35:04.956Z,48.50
2022-09-16T17:37:32.117Z,48.50
2022-09-16T17:39:59.264Z,48.50
2022-09-16T17:42:26.511Z,48.60
2022-09-16T17:44:53.451Z,48.50
2022-09-16T17:47:21.376Z,48.40
2022-09-16T17:49:50.464Z,48.40
2022-09-16T17:52:17.453Z,48.40
2022-09-16T17:54:47.630Z,48.40
2022-09-16T17:57:21.942Z,48.40
2022-09-16T17:59:49.159Z,48.40
2022-09-16T18:02:18.344Z,48.50
2022-09-16T18:04:45.615Z,48.50
2022-09-16T18:07:14.783Z,48.50
2022-09-16T18:09:47.410Z,48.50
2022-09-16T18:15:00.514Z,48.60
2022-09-16T18:17:35.126Z,48.70
2022-09-16T18:20:07.212Z,48.80
2022-09-16T18:22:34.668Z,48.80
2022-09-16T18:25:04.332Z,48.80
2022-09-16T18:27:35.355Z,48.90
2022-09-16T18:30:05.439Z,48.90
2022-09-16T18:32:32.815Z,48.90
2022-09-16T18:35:24.304Z,49.00
2022-09-16T18:38:03.438Z,49.00
2022-09-16T18:40:39.588Z,49.10
2022-09-16T18:43:06.842Z,49.20
2022-09-16T18:45:39.391Z,49.30
2022-09-16T18:48:12.887Z,49.30
2022-09-16T18:50:40.219Z,49.40
2022-09-16T18:53:13.356Z,49.50
2022-09-16T18:55:40.436Z,49.50
2022-09-16T18:58:07.769Z,49.60
2022-09-16T19:00:37.589Z,49.60
2022-09-16T19:03:04.858Z,49.60
2022-09-16T19:05:31.990Z,49.60
2022-09-16T19:07:59.189Z,49.70
2022-09-16T19:10:26.898Z,49.70
2022-09-16T19:13:01.123Z,49.80
2022-09-16T19:15:31.126Z,49.90
2022-09-16T19:18:01.447Z,50.00
2022-09-16T19:20:36.538Z,50.10
2022-09-16T19:23:03.772Z,50.70
2022-09-16T19:25:35.034Z,50.20
2022-09-16T19:28:09.287Z,50.30
2022-09-16T19:30:46.031Z,50.50
2022-09-16T19:33:13.174Z,50.60
2022-09-16T19:35:41.347Z,50.80
2022-09-16T19:38:08.374Z,50.90
2022-09-16T19:40:55.974Z,51.00
2022-09-16T19:43:45.413Z,51.00
2022-09-16T19:46:20.930Z,51.00
2022-09-16T19:49:18.554Z,51.10
2022-09-16T19:52:06.829Z,51.00
2022-09-16T19:54:34.011Z,51.00
2022-09-16T19:57:05.266Z,51.00
2022-09-16T19:59:32.876Z,51.00
2022-09-16T20:02:36.323Z,51.00
2022-09-16T20:08:42.850Z,51.00
2022-09-16T20:11:17.491Z,51.00
2022-09-16T20:13:52.027Z,50.90
2022-09-16T20:17:50.374Z,51.00
2022-09-16T20:23:17.647Z,51.00
2022-09-16T20:25:58.693Z,50.90
2022-09-16T20:28:40.493Z,50.90
2022-09-16T20:42:30.117Z,51.10
2022-09-16T20:45:04.992Z,51.20
2022-09-16T20:47:37.223Z,51.20
2022-09-16T20:50:04.636Z,51.30
2022-09-16T20:52:38.335Z,51.30
2022-09-16T20:55:06.715Z,51.40
2022-09-16T20:57:35.795Z,51.50
2022-09-16T21:00:03.246Z,51.70
2022-09-16T21:02:39.050Z,51.80
2022-09-16T21:05:06.515Z,52.00
2022-09-16T21:07:34.087Z,52.10
2022-09-16T21:10:02.003Z,52.20
2022-09-16T21:12:34.474Z,52.20
2022-09-16T21:15:01.513Z,52.30
2022-09-16T21:17:34.044Z,52.40
2022-09-16T21:20:06.500Z,52.40
2022-09-16T21:22:47.852Z,52.50
2022-09-16T21:25:16.952Z,52.60
2022-09-16T21:27:45.775Z,52.70
2022-09-16T21:30:19.450Z,52.70
2022-09-16T21:32:46.583Z,52.70
2022-09-16T21:35:14.551Z,52.80
2022-09-16T21:37:41.572Z,52.80
2022-09-16T21:40:12.583Z,52.90
2022-09-16T21:42:42.345Z,53.00
2022-09-16T21:45:10.974Z,53.10
2022-09-16T21:47:40.882Z,53.20
2022-09-16T21:50:08.859Z,53.20
2022-09-16T21:52:40.885Z,53.20
2022-09-16T21:55:33.836Z,53.30
2022-09-16T21:58:08.105Z,53.40
2022-09-16T22:00:36.240Z,53.30
2022-09-16T22:03:15.406Z,53.40
2022-09-16T22:06:07.718Z,53.50
2022-09-16T22:08:35.058Z,53.60
2022-09-16T22:11:16.331Z,53.60
2022-09-16T22:13:43.406Z,53.70
2022-09-16T22:16:29.994Z,53.80
2022-09-16T22:19:22.167Z,53.90
2022-09-16T22:21:52.641Z,53.90
2022-09-16T22:39:11.844Z,54.00
2022-09-16T22:56:44.843Z,54.50
2022-09-16T22:59:35.457Z,54.50
2022-09-16T23:02:13.451Z,54.50
2022-09-16T23:04:46.547Z,54.70
2022-09-16T23:10:32.139Z,54.70
2022-09-16T23:13:09.854Z,54.80
2022-09-16T23:19:40.278Z,55.00
2022-09-16T23:22:07.455Z,55.10
2022-09-16T23:24:43.585Z,55.00
2022-09-16T23:27:24.773Z,55.00
2022-09-16T23:32:40.163Z,55.00
2022-09-16T23:35:13.517Z,55.10
2022-09-16T23:37:47.625Z,55.10
2022-09-16T23:40:30.007Z,55.10
2022-09-16T23:43:05.419Z,55.10
2022-09-16T23:46:03.404Z,55.10
2022-09-16T23:48:48.860Z,55.10
2022-09-16T23:51:16.082Z,55.10
2022-09-16T23:54:06.114Z,55.10
2022-09-16T23:56:57.211Z,55.10
2022-09-16T23:59:47.506Z,55.10
